createdAt,value
2023-05-21T00:00:18.084Z,13.77
2023-05-21T00:02:47.087Z,13.44
2023-05-21T00:05:19.311Z,13.29
2023-05-21T00:07:48.523Z,13.07
2023-05-21T00:10:17.977Z,12.63
2023-05-21T00:12:46.954Z,12.84
2023-05-21T00:15:15.777Z,12.57
2023-05-21T00:17:45.180Z,12.50
2023-05-21T00:20:14.149Z,12.47
2023-05-21T00:22:43.246Z,12.28
2023-05-21T00:25:13.033Z,12.31
2023-05-21T00:27:42.003Z,12.26
2023-05-21T00:30:11.218Z,12.24
2023-05-21T00:32:40.196Z,12.29
2023-05-21T00:35:10.026Z,12.08
2023-05-21T00:37:39.236Z,12.53
2023-05-21T00:40:09.843Z,12.44
2023-05-21T00:42:40.765Z,12.58
2023-05-21T00:45:10.268Z,12.58
2023-05-21T00:47:40.075Z,12.74
2023-05-21T00:50:09.841Z,13.51
2023-05-21T00:52:42.648Z,14.58
2023-05-21T00:55:11.807Z,15.22
2023-05-21T00:57:41.527Z,15.49
2023-05-21T01:00:11.460Z,16.26
2023-05-21T01:02:40.780Z,16.79
2023-05-21T01:05:10.976Z,17.10
2023-05-21T01:07:42.130Z,17.31
2023-05-21T01:10:13.739Z,17.41
2023-05-21T01:12:45.730Z,17.55
2023-05-21T01:15:15.217Z,17.42
2023-05-21T01:17:46.501Z,17.37
2023-05-21T01:20:21.003Z,17.11
2023-05-21T01:22:52.783Z,17.31
2023-05-21T01:25:22.063Z,16.90
2023-05-21T01:27:52.471Z,16.82
2023-05-21T01:30:23.358Z,16.52
2023-05-21T01:33:30.617Z,16.88
2023-05-21T01:36:27.160Z,16.88
2023-05-21T01:39:03.080Z,16.85
2023-05-21T01:41:37.950Z,16.70
2023-05-21T01:44:08.244Z,16.29
2023-05-21T01:46:38.785Z,16.16
2023-05-21T01:49:09.027Z,16.14
2023-05-21T01:51:38.803Z,16.06
2023-05-21T01:54:07.642Z,15.83
2023-05-21T01:56:37.684Z,16.01
2023-05-21T01:59:06.733Z,16.01
2023-05-21T02:01:35.554Z,16.28
2023-05-21T02:04:04.818Z,16.33
2023-05-21T02:06:34.105Z,16.66
2023-05-21T02:09:04.345Z,16.67
2023-05-21T02:11:33.149Z,17.04
2023-05-21T02:14:02.312Z,17.27
2023-05-21T02:16:31.868Z,17.48
2023-05-21T02:19:01.357Z,17.47
2023-05-21T02:21:30.347Z,17.39
2023-05-21T02:23:59.318Z,17.46
2023-05-21T02:26:28.610Z,17.59
2023-05-21T02:28:57.551Z,17.84
2023-05-21T02:31:26.742Z,17.69
2023-05-21T02:33:55.600Z,18.21
2023-05-21T02:36:26.129Z,18.05
2023-05-21T02:38:55.336Z,18.63
2023-05-21T02:41:24.289Z,18.81
2023-05-21T02:43:53.191Z,19.03
2023-05-21T02:46:22.674Z,18.92
2023-05-21T02:48:51.596Z,19.07
2023-05-21T02:51:20.323Z,19.27
2023-05-21T02:53:49.880Z,19.40
2023-05-21T02:56:19.447Z,19.74
2023-05-21T02:58:49.072Z,19.92
2023-05-21T03:01:17.890Z,20.06
2023-05-21T03:03:47.305Z,19.95
2023-05-21T03:06:17.293Z,19.92
2023-05-21T03:08:46.252Z,19.71
2023-05-21T03:11:15.245Z,20.26
2023-05-21T03:13:44.146Z,20.42
2023-05-21T03:16:13.112Z,20.53
2023-05-21T03:18:42.076Z,20.67
2023-05-21T03:21:14.064Z,20.86
2023-05-21T03:23:45.368Z,21.06
2023-05-21T03:26:14.864Z,21.19
2023-05-21T03:28:44.500Z,21.24
2023-05-21T03:31:13.504Z,21.32
2023-05-21T03:34:14.485Z,21.65
2023-05-21T03:36:43.461Z,21.74
2023-05-21T03:39:12.668Z,21.80
2023-05-21T03:41:41.826Z,21.98
2023-05-21T03:44:17.987Z,22.08
2023-05-21T03:46:55.367Z,21.94
2023-05-21T03:49:33.143Z,22.13
2023-05-21T03:52:02.410Z,22.17
2023-05-21T03:54:31.240Z,22.14
2023-05-21T03:57:04.652Z,22.50
2023-05-21T03:59:34.866Z,22.60
2023-05-21T04:02:06.162Z,22.48
2023-05-21T04:04:35.221Z,22.51
2023-05-21T04:07:05.325Z,22.82
2023-05-21T04:09:36.512Z,22.71
2023-05-21T04:12:05.808Z,23.02
2023-05-21T04:14:35.210Z,23.33
2023-05-21T04:17:06.151Z,23.41
2023-05-21T04:19:35.397Z,23.52
2023-05-21T04:22:05.754Z,23.60
2023-05-21T04:24:37.687Z,23.38
2023-05-21T04:27:17.691Z,23.66
2023-05-21T04:29:47.614Z,23.71
2023-05-21T04:32:18.858Z,23.90
2023-05-21T04:34:47.748Z,23.95
2023-05-21T04:37:18.764Z,23.94
2023-05-21T04:39:47.698Z,23.89
2023-05-21T04:42:16.608Z,23.63
2023-05-21T04:44:45.476Z,23.72
2023-05-21T04:47:15.405Z,23.95
2023-05-21T04:49:45.111Z,24.14
2023-05-21T04:52:14.795Z,24.01
2023-05-21T04:54:44.179Z,24.36
2023-05-21T04:57:13.331Z,24.24
2023-05-21T04:59:44.446Z,24.35
2023-05-21T05:02:13.224Z,24.25
2023-05-21T05:04:42.158Z,24.65
2023-05-21T05:07:11.768Z,25.08
2023-05-21T05:09:43.785Z,24.95
2023-05-21T05:12:12.934Z,24.59
2023-05-21T05:14:41.765Z,24.50
2023-05-21T05:17:11.396Z,24.69
2023-05-21T05:19:40.728Z,24.69
2023-05-21T05:22:10.401Z,24.73
2023-05-21T05:24:40.827Z,24.73
2023-05-21T05:27:09.530Z,25.13
2023-05-21T05:29:38.488Z,25.09
2023-05-21T05:32:08.133Z,25.01
2023-05-21T05:34:36.949Z,24.98
2023-05-21T05:37:07.448Z,25.24
2023-05-21T05:39:36.177Z,25.27
2023-05-21T05:42:05.554Z,24.81
2023-05-21T05:44:34.481Z,24.48
2023-05-21T05:47:03.730Z,23.89
2023-05-21T05:49:32.516Z,23.75
2023-05-21T05:52:02.328Z,24.01
2023-05-21T05:54:31.410Z,24.49
2023-05-21T05:57:00.490Z,24.83
2023-05-21T05:59:29.598Z,25.17
2023-05-21T06:02:02.293Z,25.55
2023-05-21T06:04:31.321Z,25.00
2023-05-21T06:07:03.366Z,24.59
2023-05-21T06:09:34.485Z,24.34
2023-05-21T06:12:03.273Z,24.28
2023-05-21T06:14:32.589Z,24.19
2023-05-21T06:17:01.562Z,24.58
2023-05-21T06:19:30.372Z,25.01
2023-05-21T06:21:59.366Z,25.31
2023-05-21T06:24:28.646Z,26.11
2023-05-21T06:26:57.964Z,26.19
2023-05-21T06:29:27.096Z,25.73
2023-05-21T06:31:56.392Z,25.04
2023-05-21T06:34:25.438Z,24.78
2023-05-21T06:36:58.978Z,24.49
2023-05-21T06:39:28.565Z,24.04
2023-05-21T06:41:57.956Z,24.13
2023-05-21T06:44:45.575Z,24.80
2023-05-21T06:47:38.380Z,25.29
2023-05-21T06:50:07.581Z,25.39
2023-05-21T06:52:36.703Z,25.70
2023-05-21T06:55:06.188Z,26.21
2023-05-21T06:57:55.048Z,26.21
2023-05-21T07:00:24.554Z,26.21
2023-05-21T07:02:53.492Z,26.13
2023-05-21T07:05:22.533Z,25.58
2023-05-21T07:07:51.714Z,25.71
2023-05-21T07:10:21.373Z,25.91
2023-05-21T07:12:50.247Z,25.89
2023-05-21T07:15:21.923Z,26.02
2023-05-21T07:17:50.804Z,26.51
2023-05-21T07:20:20.733Z,26.97
2023-05-21T07:22:52.286Z,26.56
2023-05-21T07:25:21.504Z,26.47
2023-05-21T07:27:50.464Z,26.61
2023-05-21T07:30:19.243Z,26.53
2023-05-21T07:32:49.191Z,26.41
2023-05-21T07:35:18.104Z,26.90
2023-05-21T07:37:47.857Z,26.97
2023-05-21T07:40:17.024Z,27.03
2023-05-21T07:42:46.703Z,26.43
2023-05-21T07:45:20.006Z,25.80
2023-05-21T07:47:48.907Z,25.76
2023-05-21T07:50:18.247Z,25.89
2023-05-21T07:52:47.666Z,25.61
2023-05-21T07:55:17.474Z,25.24
2023-05-21T07:57:47.152Z,24.95
2023-05-21T08:00:18.398Z,24.77
2023-05-21T08:02:53.905Z,24.82
2023-05-21T08:05:24.152Z,25.16
2023-05-21T08:07:53.347Z,25.37
2023-05-21T08:10:23.471Z,25.29
2023-05-21T08:12:53.766Z,25.64
2023-05-21T08:15:23.345Z,26.16
2023-05-21T08:17:52.418Z,26.42
2023-05-21T08:20:21.924Z,26.53
2023-05-21T08:22:51.967Z,26.69
2023-05-21T08:25:21.646Z,26.49
2023-05-21T08:27:52.333Z,26.36
2023-05-21T08:30:21.942Z,26.35
2023-05-21T08:32:50.823Z,26.46
2023-05-21T08:35:22.030Z,26.18
2023-05-21T08:37:59.597Z,26.62
2023-05-21T08:40:44.306Z,26.48
2023-05-21T08:43:17.303Z,26.71
2023-05-21T08:45:55.923Z,27.21
2023-05-21T08:48:29.126Z,27.44
2023-05-21T08:51:00.467Z,27.54
2023-05-21T08:53:36.936Z,27.56
2023-05-21T08:56:09.993Z,27.83
2023-05-21T08:58:52.268Z,27.33
2023-05-21T09:01:26.553Z,27.09
2023-05-21T09:04:20.139Z,27.05
2023-05-21T09:06:55.478Z,26.46
2023-05-21T09:09:48.345Z,26.19
2023-05-21T09:12:17.904Z,26.43
2023-05-21T09:14:49.268Z,26.52
2023-05-21T09:17:21.309Z,26.47
2023-05-21T09:20:14.189Z,26.50
2023-05-21T09:22:52.739Z,26.49
2023-05-21T09:25:28.916Z,26.68
2023-05-21T09:28:02.142Z,26.36
2023-05-21T09:30:33.319Z,25.74
2023-05-21T09:33:07.824Z,25.35
2023-05-21T09:35:38.252Z,25.18
2023-05-21T09:38:10.519Z,25.49
2023-05-21T09:40:46.522Z,25.65
2023-05-21T09:43:17.227Z,25.85
2023-05-21T09:45:54.158Z,26.02
2023-05-21T09:48:35.537Z,25.97
2023-05-21T09:51:10.839Z,26.05
2023-05-21T09:53:59.378Z,26.12
2023-05-21T09:56:32.973Z,26.23
2023-05-21T09:59:07.726Z,26.48
2023-05-21T10:01:38.330Z,26.61
2023-05-21T10:04:11.587Z,26.73
2023-05-21T10:06:45.424Z,26.76
2023-05-21T10:09:20.264Z,26.67
2023-05-21T10:11:53.894Z,26.31
2023-05-21T10:14:26.364Z,26.47
2023-05-21T10:16:58.986Z,26.40
2023-05-21T10:19:32.712Z,26.46
2023-05-21T10:22:02.311Z,26.45
2023-05-21T10:24:32.816Z,26.18
2023-05-21T10:27:04.875Z,25.81
2023-05-21T10:29:36.458Z,25.97
2023-05-21T10:32:06.955Z,26.05
2023-05-21T10:34:37.712Z,26.05
2023-05-21T10:37:10.563Z,25.93
2023-05-21T10:39:40.619Z,26.09
2023-05-21T10:42:25.144Z,26.34
2023-05-21T10:45:18.766Z,26.21
2023-05-21T10:48:24.922Z,25.85
2023-05-21T10:51:17.606Z,25.73
2023-05-21T10:54:17.563Z,25.42
2023-05-21T10:56:58.467Z,25.38
2023-05-21T11:00:04.955Z,25.30
2023-05-21T11:02:37.900Z,25.27
2023-05-21T11:05:07.878Z,25.16
2023-05-21T11:07:58.522Z,25.05
2023-05-21T11:10:39.068Z,24.97
2023-05-21T11:13:15.477Z,24.82
2023-05-21T11:15:59.920Z,24.79
2023-05-21T11:18:39.158Z,24.85
2023-05-21T11:21:11.253Z,24.86
2023-05-21T11:23:52.355Z,24.96
2023-05-21T11:26:25.692Z,24.97
2023-05-21T11:29:07.154Z,25.09
2023-05-21T11:31:40.887Z,25.15
2023-05-21T11:34:10.373Z,25.39
2023-05-21T11:36:45.071Z,25.46
2023-05-21T11:39:25.760Z,25.51
2023-05-21T11:42:04.447Z,25.56
2023-05-21T11:44:43.409Z,25.54
2023-05-21T11:47:15.534Z,25.44
2023-05-21T11:49:45.067Z,25.49
2023-05-21T11:52:15.695Z,25.45
2023-05-21T11:54:51.494Z,25.40
2023-05-21T11:57:21.176Z,25.19
2023-05-21T11:59:54.739Z,25.30
2023-05-21T12:02:23.932Z,25.37
2023-05-21T12:04:52.887Z,25.31
2023-05-21T12:07:22.791Z,25.26
2023-05-21T12:09:53.332Z,24.94
2023-05-21T12:12:25.128Z,25.00
2023-05-21T12:14:55.705Z,25.03
2023-05-21T12:17:25.946Z,25.02
2023-05-21T12:19:57.910Z,25.00
2023-05-21T12:22:29.020Z,24.97
2023-05-21T12:24:59.246Z,25.07
2023-05-21T12:27:29.015Z,24.97
2023-05-21T12:29:58.283Z,24.97
2023-05-21T12:32:30.006Z,24.86
2023-05-21T12:34:59.165Z,24.91
2023-05-21T12:37:36.448Z,24.86
2023-05-21T12:40:06.274Z,24.77
2023-05-21T12:42:38.395Z,24.79
2023-05-21T12:45:09.278Z,24.66
2023-05-21T12:47:38.556Z,24.70
2023-05-21T12:50:14.766Z,24.67
2023-05-21T12:52:45.184Z,24.63
2023-05-21T12:55:20.827Z,24.66
2023-05-21T12:57:50.066Z,24.61
2023-05-21T13:00:25.025Z,24.51
2023-05-21T13:02:54.223Z,24.47
2023-05-21T13:05:23.252Z,24.38
2023-05-21T13:07:52.692Z,24.42
2023-05-21T13:10:21.485Z,24.36
2023-05-21T13:12:50.559Z,24.40
2023-05-21T13:15:20.407Z,24.26
2023-05-21T13:17:50.554Z,24.17
2023-05-21T13:20:24.583Z,24.04
2023-05-21T13:22:53.773Z,23.97
2023-05-21T13:25:25.807Z,23.96
2023-05-21T13:27:55.540Z,23.97
2023-05-21T13:30:24.559Z,23.65
2023-05-21T13:32:53.604Z,23.91
2023-05-21T13:35:23.007Z,23.91
2023-05-21T13:37:52.324Z,23.94
2023-05-21T13:40:21.628Z,23.81
2023-05-21T13:42:51.073Z,23.66
2023-05-21T13:45:21.850Z,23.52
2023-05-21T13:47:51.223Z,23.47
2023-05-21T13:50:20.213Z,23.08
2023-05-21T13:52:49.328Z,23.26
2023-05-21T13:55:19.693Z,23.09
2023-05-21T13:57:48.581Z,23.04
2023-05-21T14:00:17.563Z,22.95
2023-05-21T14:02:46.387Z,22.48
2023-05-21T14:05:15.425Z,22.59
2023-05-21T14:07:44.521Z,22.42
2023-05-21T14:10:13.409Z,22.26
2023-05-21T14:12:46.807Z,22.11
2023-05-21T14:15:18.565Z,22.00
2023-05-21T14:17:47.501Z,21.90
2023-05-21T14:20:16.284Z,21.91
2023-05-21T14:22:45.498Z,21.74
2023-05-21T14:25:14.438Z,21.59
2023-05-21T14:27:43.628Z,21.41
2023-05-21T14:30:12.868Z,21.44
2023-05-21T14:32:42.023Z,21.43
2023-05-21T14:35:11.026Z,21.38
2023-05-21T14:37:40.191Z,21.26
2023-05-21T14:40:09.701Z,21.24
2023-05-21T14:42:38.747Z,21.19
2023-05-21T14:45:18.693Z,21.06
2023-05-21T14:47:48.952Z,20.97
2023-05-21T14:50:19.053Z,20.90
2023-05-21T14:52:48.364Z,20.75
2023-05-21T14:55:23.078Z,20.67
2023-05-21T14:57:52.245Z,20.59
2023-05-21T15:00:21.726Z,20.49
2023-05-21T15:02:55.788Z,20.22
2023-05-21T15:05:32.796Z,20.28
2023-05-21T15:08:02.339Z,20.19
2023-05-21T15:10:31.663Z,20.16
2023-05-21T15:13:00.520Z,19.62
2023-05-21T15:15:29.359Z,20.11
2023-05-21T15:17:58.790Z,20.10
2023-05-21T15:20:27.887Z,20.06
2023-05-21T15:23:15.438Z,20.22
2023-05-21T15:25:46.488Z,20.14
2023-05-21T15:28:15.814Z,20.12
2023-05-21T15:30:44.864Z,20.18
2023-05-21T15:33:13.863Z,20.15
2023-05-21T15:35:43.138Z,20.08
2023-05-21T15:38:12.408Z,20.07
2023-05-21T15:40:45.086Z,20.01
2023-05-21T15:43:14.484Z,19.92
2023-05-21T15:45:43.388Z,19.90
2023-05-21T15:48:13.444Z,19.90
2023-05-21T15:50:42.561Z,19.98
2023-05-21T15:53:12.593Z,19.97
2023-05-21T15:55:41.647Z,19.85
2023-05-21T15:58:10.983Z,19.84
2023-05-21T16:00:42.493Z,19.83
2023-05-21T16:03:13.396Z,19.79
2023-05-21T16:05:42.590Z,19.71
2023-05-21T16:08:13.072Z,19.77
2023-05-21T16:10:42.029Z,19.68
2023-05-21T16:13:11.338Z,19.62
2023-05-21T16:15:41.167Z,19.50
2023-05-21T16:18:10.505Z,19.50
2023-05-21T16:20:40.053Z,19.39
2023-05-21T16:23:12.951Z,19.26
2023-05-21T16:25:42.377Z,19.33
2023-05-21T16:28:12.829Z,19.25
2023-05-21T16:30:41.991Z,18.81
2023-05-21T16:33:12.196Z,19.21
2023-05-21T16:35:41.328Z,19.26
2023-05-21T16:38:10.684Z,19.10
2023-05-21T16:40:41.302Z,19.19
2023-05-21T16:43:10.416Z,19.19
2023-05-21T16:45:45.215Z,19.04
2023-05-21T16:48:14.714Z,18.75
2023-05-21T16:50:44.314Z,18.95
2023-05-21T16:53:13.620Z,18.97
2023-05-21T16:55:43.934Z,19.00
2023-05-21T16:58:14.491Z,18.90
2023-05-21T17:00:43.151Z,18.87
2023-05-21T17:03:13.506Z,19.00
2023-05-21T17:05:42.805Z,18.91
2023-05-21T17:08:11.704Z,18.85
2023-05-21T17:10:40.378Z,18.91
2023-05-21T17:13:21.673Z,18.83
2023-05-21T17:15:54.506Z,18.79
2023-05-21T17:18:23.633Z,18.76
2023-05-21T17:20:52.549Z,18.75
2023-05-21T17:23:21.374Z,18.40
2023-05-21T17:25:53.350Z,18.51
2023-05-21T17:28:22.550Z,18.53
2023-05-21T17:30:52.300Z,18.41
2023-05-21T17:33:22.214Z,18.39
2023-05-21T17:35:52.154Z,18.35
2023-05-21T17:38:21.418Z,18.31
2023-05-21T17:40:51.377Z,18.31
2023-05-21T17:43:20.325Z,18.23
2023-05-21T17:45:49.122Z,18.28
2023-05-21T17:48:18.529Z,18.42
2023-05-21T17:50:47.928Z,18.04
2023-05-21T17:53:17.406Z,18.22
2023-05-21T17:55:46.785Z,18.05
2023-05-21T17:58:16.549Z,18.24
2023-05-21T18:00:45.939Z,18.20
2023-05-21T18:03:15.298Z,18.17
2023-05-21T18:05:44.516Z,18.13
2023-05-21T18:08:13.486Z,18.12
2023-05-21T18:10:43.502Z,18.17
2023-05-21T18:13:12.689Z,18.11
2023-05-21T18:15:41.778Z,17.76
2023-05-21T18:18:10.769Z,17.75
2023-05-21T18:20:39.670Z,17.97
2023-05-21T18:23:08.566Z,17.93
2023-05-21T18:25:37.303Z,17.78
2023-05-21T18:28:06.386Z,17.92
2023-05-21T18:30:37.318Z,17.79
2023-05-21T18:33:06.451Z,17.81
2023-05-21T18:35:35.764Z,17.50
2023-05-21T18:38:04.898Z,17.30
2023-05-21T18:40:34.061Z,17.70
2023-05-21T18:43:07.182Z,17.38
2023-05-21T18:45:36.693Z,17.68
2023-05-21T18:48:05.977Z,17.55
2023-05-21T18:50:35.710Z,17.22
2023-05-21T18:53:05.489Z,17.54
2023-05-21T18:55:35.425Z,17.42
2023-05-21T18:58:04.357Z,17.53
2023-05-21T19:00:34.858Z,17.43
2023-05-21T19:03:03.996Z,17.46
2023-05-21T19:05:33.223Z,17.29
2023-05-21T19:08:02.006Z,17.44
2023-05-21T19:10:31.505Z,17.46
2023-05-21T19:13:00.409Z,17.06
2023-05-21T19:15:29.322Z,17.30
2023-05-21T19:17:58.093Z,17.25
2023-05-21T19:20:29.935Z,17.24
2023-05-21T19:22:58.724Z,17.28
2023-05-21T19:25:28.243Z,17.13
2023-05-21T19:27:57.223Z,17.17
2023-05-21T19:30:26.474Z,17.03
2023-05-21T19:32:55.599Z,17.07
2023-05-21T19:35:24.411Z,16.85
2023-05-21T19:37:55.344Z,16.66
2023-05-21T19:40:24.404Z,16.98
2023-05-21T19:42:53.346Z,16.84
2023-05-21T19:45:22.326Z,16.69
2023-05-21T19:47:52.116Z,16.82
2023-05-21T19:50:20.848Z,16.64
2023-05-21T19:52:49.771Z,16.61
2023-05-21T19:55:20.978Z,16.57
2023-05-21T19:57:49.901Z,16.17
2023-05-21T20:00:19.018Z,16.47
2023-05-21T20:02:48.101Z,16.31
2023-05-21T20:05:17.057Z,16.24
2023-05-21T20:07:45.973Z,16.23
2023-05-21T20:10:15.208Z,16.15
2023-05-21T20:12:44.244Z,16.11
2023-05-21T20:15:15.168Z,16.17
2023-05-21T20:17:44.948Z,16.13
2023-05-21T20:20:13.870Z,15.67
2023-05-21T20:22:42.652Z,15.88
2023-05-21T20:25:11.578Z,15.91
2023-05-21T20:27:40.400Z,15.84
2023-05-21T20:30:09.972Z,15.77
2023-05-21T20:32:39.016Z,15.75
2023-05-21T20:35:12.190Z,15.73
2023-05-21T20:37:41.098Z,15.60
2023-05-21T20:40:13.397Z,15.67
2023-05-21T20:42:45.660Z,15.52
2023-05-21T20:45:16.656Z,15.36
2023-05-21T20:47:45.454Z,15.52
2023-05-21T20:50:14.359Z,15.31
2023-05-21T20:52:46.237Z,15.36
2023-05-21T20:55:15.883Z,15.18
2023-05-21T20:57:44.859Z,15.23
2023-05-21T21:00:14.337Z,15.06
2023-05-21T21:02:43.338Z,14.92
2023-05-21T21:05:12.238Z,15.01
2023-05-21T21:07:41.241Z,14.84
2023-05-21T21:10:10.602Z,14.68
2023-05-21T21:12:39.439Z,14.72
2023-05-21T21:15:09.177Z,14.71
2023-05-21T21:17:38.140Z,14.75
2023-05-21T21:20:08.659Z,14.68
2023-05-21T21:22:37.475Z,14.73
2023-05-21T21:25:07.057Z,14.75
2023-05-21T21:27:35.769Z,14.59
2023-05-21T21:30:05.578Z,14.27
2023-05-21T21:32:34.376Z,14.56
2023-05-21T21:35:03.204Z,14.49
2023-05-21T21:37:32.123Z,14.50
2023-05-21T21:40:01.061Z,14.50
2023-05-21T21:42:30.264Z,14.26
2023-05-21T21:44:59.043Z,14.43
2023-05-21T21:47:27.934Z,14.40
2023-05-21T21:49:56.844Z,14.27
2023-05-21T21:52:28.263Z,14.31
2023-05-21T21:54:57.223Z,14.26
2023-05-21T21:57:28.225Z,14.07
2023-05-21T21:59:57.269Z,14.04
2023-05-21T22:02:26.683Z,14.04
2023-05-21T22:04:55.514Z,13.92
2023-05-21T22:07:24.546Z,13.86
2023-05-21T22:09:53.366Z,14.02
2023-05-21T22:12:23.448Z,13.80
2023-05-21T22:14:52.448Z,13.86
2023-05-21T22:17:22.220Z,13.52
2023-05-21T22:19:51.594Z,13.84
2023-05-21T22:22:20.362Z,13.76
2023-05-21T22:24:49.217Z,13.85
2023-05-21T22:27:18.166Z,13.69
2023-05-21T22:29:47.088Z,13.75
2023-05-21T22:32:15.853Z,13.30
2023-05-21T22:34:44.776Z,13.49
2023-05-21T22:37:13.550Z,13.48
2023-05-21T22:39:42.427Z,13.25
2023-05-21T22:42:11.548Z,13.12
2023-05-21T22:44:40.250Z,12.82
2023-05-21T22:47:10.205Z,13.25
2023-05-21T22:49:39.049Z,13.29
2023-05-21T22:52:09.867Z,13.36
2023-05-21T22:54:38.748Z,13.42
2023-05-21T22:57:07.668Z,13.38
2023-05-21T22:59:36.794Z,13.52
2023-05-21T23:02:06.148Z,13.62
2023-05-21T23:04:43.183Z,13.56
2023-05-21T23:07:13.257Z,13.59
2023-05-21T23:09:44.585Z,13.30
2023-05-21T23:12:13.549Z,13.73
2023-05-21T23:14:42.574Z,13.97
2023-05-21T23:17:12.016Z,13.62
2023-05-21T23:19:41.345Z,13.98
2023-05-21T23:22:10.246Z,13.85
2023-05-21T23:24:39.788Z,13.86
2023-05-21T23:27:08.738Z,13.85
2023-05-21T23:29:37.411Z,13.87
2023-05-21T23:32:06.853Z,13.81
2023-05-21T23:34:35.927Z,13.84
2023-05-21T23:37:07.064Z,13.84
2023-05-21T23:39:36.126Z,13.93
2023-05-21T23:42:05.389Z,13.95
2023-05-21T23:44:34.264Z,13.67
2023-05-21T23:47:03.281Z,13.89
2023-05-21T23:49:32.153Z,13.93
2023-05-21T23:52:00.836Z,13.96
2023-05-21T23:54:29.801Z,13.98
2023-05-21T23:56:58.651Z,14.07
2023-05-21T23:59:27.686Z,14.06
